x

Cedar Key, Fl (cdrf1) Weather Station

7:00am - Tue 28th Jun 2016 All times are EDT. -4 hours from GMT.

  • Wind
    6mph, 9mph gusts
  • Air Temp 82°f
  • Sea Pressure 1015.8mb
  • Cedar Key, Fl
  • Cedar Key, Fl

More Historic Weather Station data

Upgrade to MSW Pro to gain access to the past 30 days of data for over 8000 Wavebouys and Weather Stations around the globe.

Join Pro

Comparision Forecast

View Surf forecast
   
Tue 06/28 7:00am 6 9 mph 1015.8mb 82f
6:00am 7
mph
1015.9mb 82f
5:00am 7 9 mph 1015.4mb 83f
4:00am 7 8 mph 1015.5mb 82f
3:00am 7 9 mph 1015.8mb 82f
2:00am 6 7 mph 1016.5mb 81f
1:00am 8 9 mph 1017.3mb 80f
12:00am 5 6 mph 1017.4mb 82f
Mon 06/27 11:00pm 3 5 mph 1017mb 82f
10:00pm 2
mph
1016.7mb 82f
9:00pm 10 11 mph 1016.4mb 80f
8:00pm 5 6 mph 1016.1mb 84f
7:00pm 9 11 mph 1015.1mb 85f
6:00pm 9 11 mph 1015.5mb 85f
5:00pm 9 13 mph 1015.8mb 85f
4:00pm 9 11 mph 1016.8mb 84f
3:00pm 8 13 mph 1017.6mb 85f
2:00pm 9 13 mph 1018.3mb 84f
1:00pm 7 10 mph 1019.1mb 83f
12:00pm 3 6 mph 1019.4mb 81f
11:00am 10 16 mph 1020.3mb 79f
10:00am 2 3 mph 1019.6mb 81f
9:00am 2 3 mph 1019.2mb 82f
8:00am 3 5 mph 1019mb 80f
7:00am 15 21 mph 1018.7mb 78f
6:00am 6 7 mph 1018.5mb 79f
5:00am 5 6 mph 1017.9mb 83f
4:00am 7 8 mph 1017.6mb 82f
3:00am 8 9 mph 1017.8mb 82f
2:00am 8 9 mph 1018.1mb 82f
1:00am 8 9 mph 1018.6mb 82f
12:00am 6 7 mph 1018.6mb 81f
Sun 06/26 11:00pm 1 2 mph 1018.6mb 83f
10:00pm 5 7 mph 1018.7mb 83f
9:00pm 2
mph
1019.3mb 83f
8:00pm 5 6 mph 1018.9mb 83f
7:00pm  -  1 mph 1018mb 82f
6:00pm 3 5 mph 1018.8mb 80f
5:00pm 23 31 mph 1019.8mb 82f
4:00pm 13 15 mph 1018mb 87f
3:00pm 13 16 mph 1018.5mb 88f
2:00pm 8 10 mph 1019.5mb 88f
1:00pm 6 9 mph 1020.2mb 88f
12:00pm 5 7 mph 1020.6mb 87f
11:00am 5 6 mph 1020.8mb 86f
10:00am 5 7 mph 1020.6mb 85f
9:00am 3 6 mph 1020.2mb 85f
8:00am 2
mph
1019.8mb 83f
7:00am 2 3 mph 1019.7mb 82f
6:00am 3 5 mph 1018.9mb 82f
5:00am 3 5 mph 1018.6mb 83f
4:00am 3 5 mph 1018.4mb 83f
3:00am 3 6 mph 1018.4mb 83f
2:00am 5 6 mph 1018.5mb 83f
1:00am 2 3 mph 1018.8mb 83f
12:00am 3 5 mph 1018.8mb 84f
Sat 06/25 11:00pm 5 6 mph 1018.9mb 84f
10:00pm 6 7 mph 1018.5mb 85f
9:00pm 6 7 mph 1018.3mb 85f
8:00pm 7 9 mph 1018mb 86f
7:00pm 9 13 mph 1017.6mb 87f
6:00pm 9 14 mph 1017.9mb 87f
5:00pm 9 13 mph 1018.3mb 87f
4:00pm 8 10 mph 1018.9mb 86f
3:00pm 8 10 mph 1019.2mb 85f
2:00pm 5 8 mph 1019.7mb 85f
1:00pm 5 7 mph 1020.1mb 86f
12:00pm 6 9 mph 1020.2mb 86f
11:00am 5 8 mph 1020.3mb 85f
10:00am 7 9 mph 1020.3mb 84f
9:00am 3 6 mph 1020.1mb 83f
8:00am 6 7 mph 1019.4mb 82f
7:00am 1 2 mph 1019.1mb 80f
6:00am 2 3 mph 1018.2mb 81f
5:00am 2 3 mph 1017.9mb 82f
4:00am 2 3 mph 1017.7mb 83f
3:00am 5 6 mph 1018mb 82f
2:00am 2 3 mph 1018.1mb 80f
1:00am 1 2 mph 1018.4mb 80f
12:00am 2
mph
1018.6mb 82f
Fri 06/24 11:00pm 5 6 mph 1018.7mb 83f
10:00pm 5 7 mph 1018.4mb 83f
9:00pm 5 6 mph 1017.8mb 84f
8:00pm 5 8 mph 1017.7mb 85f
7:00pm 8 14 mph 1017.6mb 86f
6:00pm 9 14 mph 1017.7mb 86f
5:00pm 11 15 mph 1018.3mb 85f
4:00pm 10 14 mph 1019.1mb 86f
3:00pm 11 16 mph 1019.3mb 85f
2:00pm 10 11 mph 1019.8mb 85f
1:00pm 9 10 mph 1020mb 85f